ASA495 PHOG-KOAK
Flight info
| Callsign | ASA495 |
|---|---|
| Flight time | 4h 49m |
| Altitude | 33000 |
| Route | CLUTS R465 CIVIT/N0465F350 R465 CINNY PIRAT3 |
| Aircraft | B739/M-SDE2E3FGHIRWXY/LB1 |
Departure
| Time | 2026-05-05 13:48 |
|---|---|
| Airport | Kahului International Airport (PHOG) |
Arrival
| Time | 2026-05-05 18:38 |
|---|---|
| Airport | San Francisco Bay Oakland International Airport (KOAK) |
| Time | Latitude | Longitude | Altitude | Speed | Heading |
|---|---|---|---|---|---|
| 2026-05-05 13:14 | 20.89249 | -156.43701 | 69 ft | 0 kts | 309° |
| 2026-05-05 13:38 | 20.89246 | -156.43698 | 69 ft | 2 kts | 308° |
| 2026-05-05 13:38 | 20.89237 | -156.43684 | 69 ft | 2 kts | 307° |
| 2026-05-05 13:38 | 20.89228 | -156.43672 | 70 ft | 2 kts | 308° |
| 2026-05-05 13:38 | 20.89219 | -156.43660 | 71 ft | 2 kts | 307° |
| 2026-05-05 13:39 | 20.89209 | -156.43646 | 72 ft | 2 kts | 308° |
| 2026-05-05 13:39 | 20.89201 | -156.43634 | 72 ft | 2 kts | 296° |
| 2026-05-05 13:39 | 20.89197 | -156.43619 | 73 ft | 2 kts | 278° |
| 2026-05-05 13:39 | 20.89197 | -156.43604 | 74 ft | 2 kts | 260° |
| 2026-05-05 13:40 | 20.89201 | -156.43588 | 74 ft | 2 kts | 244° |
| 2026-05-05 13:40 | 20.89210 | -156.43574 | 75 ft | 2 kts | 226° |
| 2026-05-05 13:40 | 20.89221 | -156.43565 | 75 ft | 2 kts | 211° |
| 2026-05-05 13:40 | 20.89227 | -156.43561 | 75 ft | 0 kts | 213° |
| 2026-05-05 13:41 | 20.89205 | -156.43578 | 75 ft | 7 kts | 215° |
| 2026-05-05 13:41 | 20.89171 | -156.43602 | 75 ft | 3 kts | 214° |
| 2026-05-05 13:41 | 20.89163 | -156.43608 | 75 ft | 0 kts | 214° |
| 2026-05-05 13:45 | 20.89158 | -156.43611 | 75 ft | 1 kts | 214° |
| 2026-05-05 13:45 | 20.89148 | -156.43619 | 75 ft | 3 kts | 215° |
| 2026-05-05 13:45 | 20.89123 | -156.43639 | 75 ft | 5 kts | 217° |
| 2026-05-05 13:45 | 20.89085 | -156.43668 | 74 ft | 7 kts | 214° |
| 2026-05-05 13:46 | 20.89044 | -156.43697 | 74 ft | 6 kts | 214° |
| 2026-05-05 13:46 | 20.89014 | -156.43707 | 75 ft | 3 kts | 181° |
| 2026-05-05 13:46 | 20.88990 | -156.43701 | 76 ft | 3 kts | 155° |
| 2026-05-05 13:46 | 20.88968 | -156.43684 | 77 ft | 3 kts | 133° |
| 2026-05-05 13:47 | 20.88950 | -156.43663 | 78 ft | 3 kts | 131° |
| 2026-05-05 13:47 | 20.88931 | -156.43639 | 79 ft | 3 kts | 117° |
| 2026-05-05 13:47 | 20.88942 | -156.43617 | 79 ft | 3 kts | 35° |
| 2026-05-05 13:47 | 20.88946 | -156.43614 | 79 ft | 0 kts | 36° |
| 2026-05-05 13:48 | 20.89020 | -156.43558 | 80 ft | 42 kts | 35° |
| 2026-05-05 13:48 | 20.89455 | -156.43234 | 67 ft | 110 kts | 35° |
| 2026-05-05 13:48 | 20.90268 | -156.42630 | 41 ft | 168 kts | 36° |
| 2026-05-05 13:48 | 20.91216 | -156.41933 | 726 ft | 160 kts | 38° |
| 2026-05-05 13:49 | 20.92139 | -156.41251 | 1224 ft | 171 kts | 33° |
| 2026-05-05 13:49 | 20.93205 | -156.40559 | 1708 ft | 183 kts | 33° |
| 2026-05-05 13:49 | 20.94315 | -156.39809 | 2060 ft | 198 kts | 34° |
| 2026-05-05 13:49 | 20.95470 | -156.38898 | 2389 ft | 213 kts | 49° |
| 2026-05-05 13:50 | 20.96087 | -156.37448 | 2714 ft | 227 kts | 84° |
| 2026-05-05 13:50 | 20.95888 | -156.35728 | 3113 ft | 240 kts | 107° |
| 2026-05-05 13:50 | 20.95404 | -156.34019 | 3857 ft | 240 kts | 106° |
| 2026-05-05 13:50 | 20.94981 | -156.32306 | 4566 ft | 240 kts | 104° |
| 2026-05-05 13:51 | 20.94593 | -156.30566 | 5269 ft | 241 kts | 103° |
| 2026-05-05 13:51 | 20.94205 | -156.28838 | 5844 ft | 245 kts | 105° |
| 2026-05-05 13:51 | 20.93776 | -156.27048 | 6015 ft | 248 kts | 105° |
| 2026-05-05 13:51 | 20.93338 | -156.25262 | 6041 ft | 247 kts | 105° |
| 2026-05-05 13:52 | 20.93037 | -156.23465 | 6044 ft | 248 kts | 92° |
| 2026-05-05 13:52 | 20.93259 | -156.21640 | 6039 ft | 251 kts | 78° |
| 2026-05-05 13:52 | 20.93710 | -156.19826 | 6048 ft | 251 kts | 77° |
| 2026-05-05 13:52 | 20.94127 | -156.17999 | 6046 ft | 251 kts | 80° |
| 2026-05-05 13:53 | 20.94483 | -156.16164 | 6037 ft | 250 kts | 81° |
| 2026-05-05 13:53 | 20.94807 | -156.14337 | 6034 ft | 251 kts | 80° |
| 2026-05-05 13:53 | 20.95157 | -156.12523 | 6027 ft | 251 kts | 79° |
| 2026-05-05 13:53 | 20.95529 | -156.10686 | 6015 ft | 251 kts | 80° |
| 2026-05-05 13:54 | 20.95883 | -156.08844 | 6009 ft | 251 kts | 81° |
| 2026-05-05 13:54 | 20.96223 | -156.07030 | 6000 ft | 251 kts | 80° |
| 2026-05-05 13:54 | 20.96582 | -156.05194 | 5995 ft | 251 kts | 79° |
| 2026-05-05 13:54 | 20.96954 | -156.03377 | 5995 ft | 251 kts | 79° |
| 2026-05-05 13:55 | 20.97370 | -156.01559 | 5988 ft | 252 kts | 73° |
| 2026-05-05 13:55 | 20.98235 | -155.99940 | 5985 ft | 257 kts | 47° |
| 2026-05-05 13:55 | 20.99746 | -155.98796 | 6106 ft | 272 kts | 31° |
| 2026-05-05 13:55 | 21.01414 | -155.97800 | 6653 ft | 272 kts | 31° |
| 2026-05-05 13:56 | 21.02997 | -155.96808 | 7500 ft | 264 kts | 33° |
| 2026-05-05 13:56 | 21.04579 | -155.95767 | 8096 ft | 267 kts | 33° |
| 2026-05-05 13:56 | 21.06170 | -155.94713 | 8681 ft | 270 kts | 33° |
| 2026-05-05 13:56 | 21.07778 | -155.93637 | 9060 ft | 282 kts | 33° |
| 2026-05-05 13:57 | 21.09446 | -155.92543 | 9792 ft | 277 kts | 32° |
| 2026-05-05 13:57 | 21.11083 | -155.91476 | 10398 ft | 277 kts | 32° |
| 2026-05-05 13:57 | 21.12732 | -155.90398 | 10920 ft | 281 kts | 32° |
| 2026-05-05 13:57 | 21.14420 | -155.89293 | 11442 ft | 284 kts | 32° |
| 2026-05-05 13:58 | 21.16108 | -155.88185 | 11891 ft | 291 kts | 32° |
| 2026-05-05 13:58 | 21.17883 | -155.87022 | 12143 ft | 306 kts | 32° |
| 2026-05-05 13:58 | 21.19748 | -155.85799 | 12389 ft | 321 kts | 31° |
| 2026-05-05 13:58 | 21.21689 | -155.84525 | 12617 ft | 337 kts | 31° |
| 2026-05-05 13:59 | 21.25900 | -155.81763 | 13029 ft | 367 kts | 31° |
| 2026-05-05 13:59 | 21.28125 | -155.80302 | 13224 ft | 381 kts | 31° |
| 2026-05-05 14:00 | 21.32705 | -155.77293 | 14172 ft | 389 kts | 31° |
| 2026-05-05 14:00 | 21.34254 | -155.76276 | 14492 ft | 391 kts | 31° |
| 2026-05-05 14:00 | 21.37346 | -155.74239 | 15114 ft | 395 kts | 31° |
| 2026-05-05 14:00 | 21.39719 | -155.72678 | 15574 ft | 398 kts | 30° |
| 2026-05-05 14:01 | 21.42072 | -155.71129 | 16017 ft | 401 kts | 30° |
| 2026-05-05 14:01 | 21.44476 | -155.69545 | 16464 ft | 404 kts | 30° |
| 2026-05-05 14:01 | 21.46896 | -155.67952 | 16909 ft | 407 kts | 30° |
| 2026-05-05 14:01 | 21.49306 | -155.66363 | 17342 ft | 410 kts | 30° |
| 2026-05-05 14:02 | 21.51731 | -155.64766 | 17771 ft | 412 kts | 30° |
| 2026-05-05 14:02 | 21.54198 | -155.63139 | 18190 ft | 415 kts | 30° |
| 2026-05-05 14:02 | 21.56675 | -155.61504 | 18602 ft | 418 kts | 30° |
| 2026-05-05 14:02 | 21.59161 | -155.59862 | 19002 ft | 421 kts | 30° |
| 2026-05-05 14:03 | 21.61647 | -155.58220 | 19398 ft | 424 kts | 30° |
| 2026-05-05 14:03 | 21.64178 | -155.56549 | 19788 ft | 427 kts | 30° |
| 2026-05-05 14:03 | 21.66716 | -155.54872 | 20167 ft | 430 kts | 30° |
| 2026-05-05 14:03 | 21.69291 | -155.53171 | 20548 ft | 433 kts | 30° |
| 2026-05-05 14:04 | 21.71843 | -155.51483 | 20915 ft | 435 kts | 30° |
| 2026-05-05 14:04 | 21.74424 | -155.49776 | 21274 ft | 438 kts | 30° |
| 2026-05-05 14:04 | 21.77035 | -155.48047 | 21629 ft | 441 kts | 30° |
| 2026-05-05 14:04 | 21.79669 | -155.46303 | 21980 ft | 444 kts | 30° |
| 2026-05-05 14:05 | 21.82285 | -155.44569 | 22320 ft | 447 kts | 30° |
| 2026-05-05 14:05 | 21.84944 | -155.42806 | 22658 ft | 450 kts | 30° |
| 2026-05-05 14:05 | 21.87638 | -155.41017 | 22992 ft | 452 kts | 30° |
| 2026-05-05 14:05 | 21.90314 | -155.39241 | 23318 ft | 455 kts | 30° |
| 2026-05-05 14:06 | 21.93042 | -155.37431 | 23646 ft | 457 kts | 30° |
| 2026-05-05 14:06 | 21.95753 | -155.35631 | 23994 ft | 460 kts | 30° |
| 2026-05-05 14:06 | 21.98484 | -155.33817 | 24342 ft | 462 kts | 30° |
| 2026-05-05 14:06 | 22.01211 | -155.32002 | 24687 ft | 464 kts | 30° |
| 2026-05-05 14:07 | 22.03968 | -155.30168 | 25029 ft | 466 kts | 30° |
| 2026-05-05 14:07 | 22.06744 | -155.28320 | 25366 ft | 468 kts | 30° |
| 2026-05-05 14:07 | 22.09493 | -155.26491 | 25695 ft | 470 kts | 30° |
| 2026-05-05 14:07 | 22.12308 | -155.24615 | 26055 ft | 472 kts | 29° |
| 2026-05-05 14:08 | 22.15097 | -155.22757 | 26382 ft | 474 kts | 29° |
| 2026-05-05 14:08 | 22.17904 | -155.20885 | 26701 ft | 476 kts | 29° |
| 2026-05-05 14:08 | 22.20742 | -155.18991 | 27017 ft | 478 kts | 29° |
| 2026-05-05 14:08 | 22.23570 | -155.17104 | 27330 ft | 480 kts | 29° |
| 2026-05-05 14:09 | 22.26430 | -155.15193 | 27642 ft | 481 kts | 29° |
| 2026-05-05 14:09 | 22.29260 | -155.13303 | 27939 ft | 483 kts | 29° |
| 2026-05-05 14:09 | 22.32134 | -155.11381 | 28233 ft | 485 kts | 29° |
| 2026-05-05 14:09 | 22.35029 | -155.09447 | 28534 ft | 487 kts | 29° |
| 2026-05-05 14:10 | 22.37888 | -155.07533 | 28834 ft | 489 kts | 29° |
| 2026-05-05 14:10 | 22.40818 | -155.05572 | 29133 ft | 491 kts | 29° |
| 2026-05-05 14:10 | 22.43708 | -155.03636 | 29445 ft | 492 kts | 29° |
| 2026-05-05 14:10 | 22.46629 | -155.01678 | 29914 ft | 489 kts | 29° |
| 2026-05-05 14:11 | 22.49506 | -154.99748 | 30296 ft | 488 kts | 29° |
| 2026-05-05 14:11 | 22.52381 | -154.97818 | 30672 ft | 487 kts | 28° |
| 2026-05-05 14:11 | 22.55268 | -154.95880 | 31045 ft | 486 kts | 28° |
| 2026-05-05 14:11 | 22.58137 | -154.93953 | 31408 ft | 486 kts | 28° |
| 2026-05-05 14:12 | 22.61018 | -154.92017 | 31768 ft | 485 kts | 28° |
| 2026-05-05 14:12 | 22.63879 | -154.90094 | 32115 ft | 484 kts | 28° |
| 2026-05-05 14:12 | 22.66754 | -154.88161 | 32455 ft | 483 kts | 28° |
| 2026-05-05 14:12 | 22.69570 | -154.86266 | 32786 ft | 483 kts | 28° |
| 2026-05-05 14:13 | 22.72428 | -154.84343 | 33048 ft | 484 kts | 28° |
| 2026-05-05 14:13 | 22.75301 | -154.82410 | 33087 ft | 486 kts | 28° |
| 2026-05-05 14:13 | 22.81008 | -154.78561 | 33097 ft | 480 kts | 28° |
| 2026-05-05 14:14 | 22.86713 | -154.74712 | 33048 ft | 480 kts | 28° |
| 2026-05-05 14:14 | 22.92434 | -154.70850 | 33019 ft | 481 kts | 28° |
| 2026-05-05 14:15 | 22.98145 | -154.66774 | 33028 ft | 485 kts | 34° |
| 2026-05-05 14:15 | 23.02879 | -154.61481 | 33036 ft | 492 kts | 50° |
| 2026-05-05 14:16 | 23.06809 | -154.55405 | 33036 ft | 494 kts | 54° |
| 2026-05-05 14:16 | 23.10539 | -154.49135 | 33037 ft | 494 kts | 55° |
| 2026-05-05 14:17 | 23.14247 | -154.42854 | 33036 ft | 494 kts | 54° |
| 2026-05-05 14:17 | 23.17996 | -154.36575 | 33035 ft | 495 kts | 54° |
| 2026-05-05 14:18 | 23.21753 | -154.30342 | 33036 ft | 495 kts | 54° |
| 2026-05-05 14:18 | 23.25536 | -154.24091 | 33036 ft | 495 kts | 54° |
| 2026-05-05 14:19 | 23.29328 | -154.17830 | 33036 ft | 495 kts | 54° |
| 2026-05-05 14:19 | 23.33092 | -154.11610 | 33037 ft | 496 kts | 54° |
| 2026-05-05 14:20 | 23.36895 | -154.05315 | 33037 ft | 496 kts | 54° |
| 2026-05-05 14:20 | 23.40665 | -153.99068 | 33038 ft | 497 kts | 54° |
| 2026-05-05 14:21 | 23.44454 | -153.92783 | 33041 ft | 497 kts | 54° |
| 2026-05-05 14:21 | 23.48229 | -153.86511 | 33042 ft | 497 kts | 54° |
| 2026-05-05 14:22 | 23.52023 | -153.80199 | 33040 ft | 497 kts | 54° |
| 2026-05-05 14:22 | 23.55805 | -153.73897 | 33038 ft | 498 kts | 54° |
| 2026-05-05 14:23 | 23.59585 | -153.67593 | 33039 ft | 498 kts | 54° |
| 2026-05-05 14:23 | 23.63360 | -153.61290 | 33039 ft | 498 kts | 54° |
| 2026-05-05 14:24 | 23.67133 | -153.54980 | 33039 ft | 498 kts | 54° |
| 2026-05-05 14:24 | 23.70909 | -153.48659 | 33039 ft | 498 kts | 54° |
| 2026-05-05 14:25 | 23.74680 | -153.42339 | 33039 ft | 497 kts | 54° |
| 2026-05-05 14:25 | 23.78459 | -153.35996 | 33039 ft | 498 kts | 54° |
| 2026-05-05 14:26 | 23.82231 | -153.29683 | 33039 ft | 498 kts | 54° |
| 2026-05-05 14:26 | 23.86001 | -153.23384 | 33039 ft | 497 kts | 54° |
| 2026-05-05 14:27 | 23.89794 | -153.17040 | 33040 ft | 497 kts | 54° |
| 2026-05-05 14:27 | 23.93562 | -153.10728 | 33040 ft | 497 kts | 54° |
| 2026-05-05 14:28 | 23.97333 | -153.04399 | 33040 ft | 497 kts | 54° |
| 2026-05-05 14:28 | 24.01081 | -152.98102 | 33040 ft | 497 kts | 54° |
| 2026-05-05 14:29 | 24.04839 | -152.91777 | 33047 ft | 497 kts | 54° |
| 2026-05-05 14:29 | 24.08596 | -152.85446 | 33053 ft | 497 kts | 54° |
| 2026-05-05 14:30 | 24.12364 | -152.79088 | 33048 ft | 497 kts | 54° |
| 2026-05-05 14:30 | 24.16103 | -152.72769 | 33048 ft | 497 kts | 54° |
| 2026-05-05 14:31 | 24.19883 | -152.66376 | 33052 ft | 497 kts | 54° |
| 2026-05-05 14:31 | 24.23632 | -152.60027 | 33053 ft | 497 kts | 54° |
| 2026-05-05 14:32 | 24.27369 | -152.53690 | 33054 ft | 497 kts | 54° |
| 2026-05-05 14:32 | 24.31127 | -152.47308 | 33054 ft | 497 kts | 54° |
| 2026-05-05 14:33 | 24.34858 | -152.40965 | 33054 ft | 497 kts | 54° |
| 2026-05-05 14:33 | 24.38610 | -152.34576 | 33053 ft | 497 kts | 54° |
| 2026-05-05 14:34 | 24.42330 | -152.28233 | 33054 ft | 497 kts | 54° |
| 2026-05-05 14:34 | 24.46065 | -152.21858 | 33054 ft | 497 kts | 54° |
| 2026-05-05 14:35 | 24.49780 | -152.15509 | 33055 ft | 497 kts | 54° |
| 2026-05-05 14:35 | 24.53513 | -152.09120 | 33055 ft | 497 kts | 54° |
| 2026-05-05 14:36 | 24.57253 | -152.02712 | 33057 ft | 497 kts | 54° |
| 2026-05-05 14:36 | 24.60951 | -151.96367 | 33068 ft | 497 kts | 54° |
| 2026-05-05 14:37 | 24.64684 | -151.89952 | 33080 ft | 497 kts | 54° |
| 2026-05-05 14:37 | 24.68402 | -151.83554 | 33083 ft | 497 kts | 54° |
| 2026-05-05 14:38 | 24.72100 | -151.77184 | 33082 ft | 496 kts | 54° |
| 2026-05-05 14:38 | 24.75814 | -151.70778 | 33082 ft | 496 kts | 54° |
| 2026-05-05 14:39 | 24.79518 | -151.64380 | 33082 ft | 496 kts | 54° |
| 2026-05-05 14:39 | 24.83220 | -151.57976 | 33082 ft | 496 kts | 54° |
| 2026-05-05 14:40 | 24.86909 | -151.51588 | 33082 ft | 496 kts | 54° |
| 2026-05-05 14:40 | 24.90598 | -151.45192 | 33082 ft | 495 kts | 54° |
| 2026-05-05 14:41 | 24.94297 | -151.38768 | 33082 ft | 495 kts | 54° |
| 2026-05-05 14:41 | 24.97983 | -151.32358 | 33082 ft | 495 kts | 55° |
| 2026-05-05 14:42 | 25.01668 | -151.25943 | 33082 ft | 495 kts | 55° |
| 2026-05-05 14:42 | 25.05349 | -151.19524 | 33082 ft | 495 kts | 55° |
| 2026-05-05 14:43 | 25.09025 | -151.13106 | 33082 ft | 494 kts | 55° |
| 2026-05-05 14:43 | 25.12705 | -151.06673 | 33082 ft | 494 kts | 55° |
| 2026-05-05 14:44 | 25.16388 | -151.00224 | 33082 ft | 494 kts | 55° |
| 2026-05-05 14:44 | 25.20040 | -150.93822 | 33082 ft | 494 kts | 55° |
| 2026-05-05 14:45 | 25.23686 | -150.87424 | 33082 ft | 494 kts | 55° |
| 2026-05-05 14:45 | 25.27347 | -150.80988 | 33083 ft | 494 kts | 55° |
| 2026-05-05 14:46 | 25.30996 | -150.74564 | 33083 ft | 493 kts | 55° |
| 2026-05-05 14:46 | 25.34649 | -150.68127 | 33083 ft | 494 kts | 55° |
| 2026-05-05 14:47 | 25.38271 | -150.61734 | 33083 ft | 493 kts | 55° |
| 2026-05-05 14:47 | 25.41918 | -150.55287 | 33083 ft | 493 kts | 55° |
| 2026-05-05 14:48 | 25.45538 | -150.48881 | 33084 ft | 492 kts | 55° |
| 2026-05-05 14:48 | 25.49148 | -150.42485 | 33084 ft | 492 kts | 55° |
| 2026-05-05 14:49 | 25.52772 | -150.36053 | 33084 ft | 491 kts | 55° |
| 2026-05-05 14:49 | 25.56385 | -150.29633 | 33084 ft | 491 kts | 56° |
| 2026-05-05 14:50 | 25.59996 | -150.23206 | 33084 ft | 490 kts | 56° |
| 2026-05-05 14:50 | 25.63594 | -150.16795 | 33084 ft | 490 kts | 56° |
| 2026-05-05 14:51 | 25.67211 | -150.10344 | 33084 ft | 490 kts | 56° |
| 2026-05-05 14:51 | 25.70797 | -150.03935 | 33084 ft | 490 kts | 56° |
| 2026-05-05 14:52 | 25.74394 | -149.97501 | 33084 ft | 490 kts | 56° |
| 2026-05-05 14:52 | 25.77960 | -149.91112 | 33084 ft | 489 kts | 56° |
| 2026-05-05 14:53 | 25.81531 | -149.84703 | 33083 ft | 489 kts | 56° |
| 2026-05-05 14:53 | 25.85099 | -149.78293 | 33083 ft | 489 kts | 56° |
| 2026-05-05 14:54 | 25.88672 | -149.71863 | 33083 ft | 489 kts | 56° |
| 2026-05-05 14:54 | 25.92233 | -149.65448 | 33083 ft | 489 kts | 56° |
| 2026-05-05 14:55 | 25.95799 | -149.59016 | 33083 ft | 489 kts | 56° |
| 2026-05-05 14:55 | 25.99355 | -149.52589 | 33083 ft | 489 kts | 56° |
| 2026-05-05 14:56 | 26.02910 | -149.46158 | 33085 ft | 489 kts | 56° |
| 2026-05-05 14:56 | 26.06462 | -149.39720 | 33087 ft | 488 kts | 56° |
| 2026-05-05 14:57 | 26.10003 | -149.33296 | 33086 ft | 488 kts | 56° |
| 2026-05-05 14:57 | 26.13541 | -149.26866 | 33086 ft | 488 kts | 56° |
| 2026-05-05 14:58 | 26.17083 | -149.20419 | 33086 ft | 488 kts | 56° |
| 2026-05-05 14:58 | 26.20599 | -149.14012 | 33086 ft | 488 kts | 57° |
| 2026-05-05 14:59 | 26.24138 | -149.07558 | 33086 ft | 487 kts | 57° |
| 2026-05-05 14:59 | 26.27667 | -149.01108 | 33086 ft | 487 kts | 56° |
| 2026-05-05 15:00 | 26.30581 | -148.95776 | 33087 ft | 487 kts | 56° |
| 2026-05-05 15:00 | 26.34688 | -148.88252 | 33089 ft | 487 kts | 56° |
| 2026-05-05 15:01 | 26.38205 | -148.81796 | 33091 ft | 487 kts | 56° |
| 2026-05-05 15:01 | 26.41698 | -148.75375 | 33091 ft | 486 kts | 57° |
| 2026-05-05 15:02 | 26.45187 | -148.68957 | 33091 ft | 486 kts | 57° |
| 2026-05-05 15:02 | 26.48695 | -148.62491 | 33091 ft | 486 kts | 56° |
| 2026-05-05 15:03 | 26.52179 | -148.56062 | 33091 ft | 486 kts | 56° |
| 2026-05-05 15:03 | 26.55660 | -148.49631 | 33091 ft | 486 kts | 56° |
| 2026-05-05 15:04 | 26.59160 | -148.43152 | 33091 ft | 486 kts | 56° |
| 2026-05-05 15:04 | 26.62643 | -148.36694 | 33091 ft | 486 kts | 56° |
| 2026-05-05 15:05 | 26.67864 | -148.26999 | 33091 ft | 486 kts | 57° |
| 2026-05-05 15:06 | 26.71328 | -148.20555 | 33091 ft | 486 kts | 57° |
| 2026-05-05 15:06 | 26.74807 | -148.14073 | 33091 ft | 486 kts | 57° |
| 2026-05-05 15:07 | 26.78276 | -148.07600 | 33091 ft | 485 kts | 57° |
| 2026-05-05 15:07 | 26.81746 | -148.01119 | 33092 ft | 485 kts | 57° |
| 2026-05-05 15:08 | 26.85210 | -147.94638 | 33091 ft | 485 kts | 57° |
| 2026-05-05 15:08 | 26.88675 | -147.88147 | 33093 ft | 484 kts | 57° |
| 2026-05-05 15:09 | 26.92103 | -147.81712 | 33094 ft | 484 kts | 57° |
| 2026-05-05 15:09 | 26.95543 | -147.75247 | 33092 ft | 484 kts | 57° |
| 2026-05-05 15:10 | 26.98997 | -147.68747 | 33091 ft | 484 kts | 57° |
| 2026-05-05 15:10 | 27.02435 | -147.62267 | 33092 ft | 484 kts | 57° |
| 2026-05-05 15:11 | 27.05882 | -147.55759 | 33092 ft | 484 kts | 57° |
| 2026-05-05 15:11 | 27.09313 | -147.49274 | 33092 ft | 485 kts | 57° |
| 2026-05-05 15:12 | 27.12738 | -147.42790 | 33093 ft | 485 kts | 57° |
| 2026-05-05 15:12 | 27.16160 | -147.36298 | 33094 ft | 485 kts | 57° |
| 2026-05-05 15:13 | 27.19594 | -147.29778 | 33094 ft | 485 kts | 57° |
| 2026-05-05 15:13 | 27.23027 | -147.23248 | 33093 ft | 485 kts | 57° |
| 2026-05-05 15:14 | 27.26456 | -147.16717 | 33093 ft | 485 kts | 58° |
| 2026-05-05 15:14 | 27.29882 | -147.10184 | 33093 ft | 485 kts | 58° |
| 2026-05-05 15:15 | 27.33280 | -147.03693 | 33093 ft | 485 kts | 58° |
| 2026-05-05 15:15 | 27.36692 | -146.97163 | 33093 ft | 485 kts | 58° |
| 2026-05-05 15:16 | 27.40093 | -146.90646 | 33093 ft | 485 kts | 58° |
| 2026-05-05 15:16 | 27.43511 | -146.84087 | 33077 ft | 485 kts | 57° |
| 2026-05-05 15:17 | 27.46924 | -146.77527 | 33052 ft | 484 kts | 57° |
| 2026-05-05 15:17 | 27.50303 | -146.71021 | 33040 ft | 484 kts | 57° |
| 2026-05-05 15:18 | 27.53696 | -146.64478 | 33038 ft | 484 kts | 57° |
| 2026-05-05 15:18 | 27.57088 | -146.57928 | 33041 ft | 484 kts | 57° |
| 2026-05-05 15:19 | 27.60471 | -146.51384 | 33040 ft | 484 kts | 57° |
| 2026-05-05 15:19 | 27.63851 | -146.44836 | 33040 ft | 484 kts | 57° |
| 2026-05-05 15:20 | 27.67229 | -146.38283 | 33040 ft | 484 kts | 57° |
| 2026-05-05 15:20 | 27.70604 | -146.31726 | 33039 ft | 484 kts | 58° |
| 2026-05-05 15:21 | 27.73980 | -146.25156 | 33039 ft | 484 kts | 58° |
| 2026-05-05 15:21 | 27.77353 | -146.18582 | 33039 ft | 484 kts | 58° |
| 2026-05-05 15:22 | 27.80724 | -146.12004 | 33038 ft | 484 kts | 58° |
| 2026-05-05 15:22 | 27.84101 | -146.05402 | 33038 ft | 484 kts | 58° |
| 2026-05-05 15:23 | 27.87461 | -145.98822 | 33037 ft | 484 kts | 58° |
| 2026-05-05 15:23 | 27.90817 | -145.92239 | 33037 ft | 484 kts | 58° |
| 2026-05-05 15:24 | 27.94172 | -145.85652 | 33036 ft | 484 kts | 58° |
| 2026-05-05 15:24 | 27.97531 | -145.79047 | 33035 ft | 484 kts | 58° |
| 2026-05-05 15:25 | 28.00888 | -145.72433 | 33035 ft | 484 kts | 58° |
| 2026-05-05 15:25 | 28.04240 | -145.65819 | 33035 ft | 484 kts | 58° |
| 2026-05-05 15:26 | 28.07602 | -145.59174 | 33035 ft | 484 kts | 58° |
| 2026-05-05 15:26 | 28.10953 | -145.52541 | 33034 ft | 483 kts | 58° |
| 2026-05-05 15:27 | 28.14279 | -145.45946 | 33034 ft | 483 kts | 58° |
| 2026-05-05 15:27 | 28.17592 | -145.39368 | 33033 ft | 483 kts | 58° |
| 2026-05-05 15:28 | 28.20918 | -145.32754 | 33033 ft | 483 kts | 58° |
| 2026-05-05 15:28 | 28.24232 | -145.26152 | 33033 ft | 482 kts | 58° |
| 2026-05-05 15:29 | 28.27543 | -145.19547 | 33032 ft | 482 kts | 58° |
| 2026-05-05 15:29 | 28.30845 | -145.12950 | 33032 ft | 482 kts | 58° |
| 2026-05-05 15:30 | 28.34148 | -145.06339 | 33032 ft | 482 kts | 58° |
| 2026-05-05 15:30 | 28.37442 | -144.99734 | 33035 ft | 482 kts | 58° |
| 2026-05-05 15:31 | 28.40759 | -144.93077 | 33038 ft | 482 kts | 58° |
| 2026-05-05 15:31 | 28.44043 | -144.86473 | 33037 ft | 482 kts | 58° |
| 2026-05-05 15:32 | 28.47331 | -144.79851 | 33037 ft | 481 kts | 58° |
| 2026-05-05 15:32 | 28.50615 | -144.73227 | 33036 ft | 481 kts | 58° |
| 2026-05-05 15:33 | 28.53898 | -144.66592 | 33036 ft | 481 kts | 58° |
| 2026-05-05 15:33 | 28.57177 | -144.59956 | 33035 ft | 481 kts | 58° |
| 2026-05-05 15:34 | 28.60460 | -144.53302 | 33035 ft | 481 kts | 58° |
| 2026-05-05 15:34 | 28.63732 | -144.46660 | 33034 ft | 481 kts | 58° |
| 2026-05-05 15:35 | 28.67006 | -144.40006 | 33034 ft | 481 kts | 58° |
| 2026-05-05 15:35 | 28.70285 | -144.33324 | 33034 ft | 481 kts | 59° |
| 2026-05-05 15:36 | 28.73523 | -144.26717 | 33034 ft | 481 kts | 59° |
| 2026-05-05 15:36 | 28.76800 | -144.20021 | 33033 ft | 481 kts | 59° |
| 2026-05-05 15:37 | 28.80042 | -144.13386 | 33033 ft | 481 kts | 59° |
| 2026-05-05 15:37 | 28.83299 | -144.06709 | 33033 ft | 481 kts | 59° |
| 2026-05-05 15:38 | 28.86545 | -144.00043 | 33032 ft | 481 kts | 59° |
| 2026-05-05 15:38 | 28.89785 | -143.93379 | 33032 ft | 481 kts | 59° |
| 2026-05-05 15:39 | 28.93013 | -143.86729 | 33032 ft | 481 kts | 59° |
| 2026-05-05 15:39 | 28.96249 | -143.80052 | 33032 ft | 481 kts | 59° |
| 2026-05-05 15:40 | 28.99488 | -143.73357 | 33032 ft | 480 kts | 59° |
| 2026-05-05 15:40 | 29.02704 | -143.66698 | 33031 ft | 481 kts | 59° |
| 2026-05-05 15:41 | 29.05917 | -143.60036 | 33031 ft | 481 kts | 59° |
| 2026-05-05 15:41 | 29.09152 | -143.53317 | 33031 ft | 480 kts | 59° |
| 2026-05-05 15:42 | 29.12355 | -143.46652 | 33031 ft | 480 kts | 59° |
| 2026-05-05 15:42 | 29.15563 | -143.39966 | 33030 ft | 480 kts | 59° |
| 2026-05-05 15:43 | 29.18764 | -143.33283 | 33030 ft | 480 kts | 59° |
| 2026-05-05 15:43 | 29.21960 | -143.26601 | 33030 ft | 480 kts | 59° |
| 2026-05-05 15:44 | 29.25172 | -143.19875 | 33030 ft | 480 kts | 59° |
| 2026-05-05 15:44 | 29.28352 | -143.13205 | 33030 ft | 480 kts | 59° |
| 2026-05-05 15:45 | 29.31560 | -143.06464 | 33030 ft | 480 kts | 59° |
| 2026-05-05 15:45 | 29.34749 | -142.99751 | 33029 ft | 480 kts | 59° |
| 2026-05-05 15:46 | 29.37919 | -142.93066 | 33029 ft | 480 kts | 59° |
| 2026-05-05 15:46 | 29.41094 | -142.86360 | 33029 ft | 480 kts | 59° |
| 2026-05-05 15:47 | 29.44280 | -142.79620 | 33029 ft | 480 kts | 59° |
| 2026-05-05 15:47 | 29.47453 | -142.72897 | 33029 ft | 480 kts | 59° |
| 2026-05-05 15:48 | 29.50626 | -142.66164 | 33028 ft | 480 kts | 59° |
| 2026-05-05 15:48 | 29.53779 | -142.59457 | 33028 ft | 480 kts | 59° |
| 2026-05-05 15:49 | 29.56945 | -142.52716 | 33028 ft | 480 kts | 59° |
| 2026-05-05 15:49 | 29.60117 | -142.45946 | 33028 ft | 480 kts | 59° |
| 2026-05-05 15:50 | 29.63257 | -142.39237 | 33028 ft | 480 kts | 59° |
| 2026-05-05 15:50 | 29.66408 | -142.32492 | 33028 ft | 480 kts | 59° |
| 2026-05-05 15:51 | 29.69571 | -142.25709 | 33027 ft | 480 kts | 59° |
| 2026-05-05 15:51 | 29.72714 | -142.18957 | 33025 ft | 480 kts | 59° |
| 2026-05-05 15:52 | 29.75859 | -142.12190 | 33022 ft | 481 kts | 59° |
| 2026-05-05 15:52 | 29.79026 | -142.05364 | 33249 ft | 482 kts | 59° |
| 2026-05-05 15:52 | 29.80603 | -142.01962 | 33501 ft | 482 kts | 59° |
| 2026-05-05 15:53 | 29.82161 | -141.98596 | 33750 ft | 481 kts | 59° |
| 2026-05-05 15:53 | 29.83745 | -141.95171 | 34033 ft | 481 kts | 59° |
| 2026-05-05 15:53 | 29.85304 | -141.91797 | 34307 ft | 480 kts | 59° |
| 2026-05-05 15:53 | 29.86866 | -141.88413 | 34577 ft | 480 kts | 59° |
| 2026-05-05 15:54 | 29.88426 | -141.85031 | 34849 ft | 480 kts | 59° |
| 2026-05-05 15:54 | 29.89990 | -141.81639 | 35042 ft | 481 kts | 59° |
| 2026-05-05 15:54 | 29.91587 | -141.78172 | 35076 ft | 482 kts | 59° |
| 2026-05-05 15:55 | 29.94698 | -141.71407 | 35080 ft | 478 kts | 59° |
| 2026-05-05 15:55 | 29.97846 | -141.64549 | 35030 ft | 477 kts | 59° |
| 2026-05-05 15:56 | 30.00991 | -141.57690 | 35020 ft | 478 kts | 59° |
| 2026-05-05 15:56 | 30.04094 | -141.50906 | 35011 ft | 478 kts | 59° |
| 2026-05-05 15:57 | 30.07202 | -141.44099 | 35015 ft | 479 kts | 59° |
| 2026-05-05 15:57 | 30.10321 | -141.37262 | 35023 ft | 478 kts | 59° |
| 2026-05-05 15:58 | 30.13412 | -141.30469 | 35022 ft | 478 kts | 60° |
| 2026-05-05 15:58 | 30.16492 | -141.23688 | 35023 ft | 478 kts | 60° |
| 2026-05-05 15:59 | 30.19587 | -141.16861 | 35025 ft | 478 kts | 60° |
| 2026-05-05 15:59 | 30.22648 | -141.10098 | 35027 ft | 478 kts | 60° |
| 2026-05-05 16:00 | 30.25748 | -141.03241 | 35029 ft | 478 kts | 59° |
| 2026-05-05 16:00 | 30.28812 | -140.96451 | 35029 ft | 478 kts | 59° |
| 2026-05-05 16:01 | 30.31897 | -140.89600 | 35029 ft | 477 kts | 59° |
| 2026-05-05 16:01 | 30.34951 | -140.82806 | 35028 ft | 477 kts | 59° |
| 2026-05-05 16:02 | 30.38026 | -140.75954 | 35028 ft | 477 kts | 59° |
| 2026-05-05 16:02 | 30.41089 | -140.69116 | 35028 ft | 477 kts | 59° |
| 2026-05-05 16:03 | 30.44132 | -140.62303 | 35027 ft | 477 kts | 59° |
| 2026-05-05 16:03 | 30.47172 | -140.55479 | 35027 ft | 477 kts | 59° |
| 2026-05-05 16:04 | 30.50202 | -140.48665 | 35027 ft | 477 kts | 59° |
| 2026-05-05 16:04 | 30.53237 | -140.41826 | 35027 ft | 477 kts | 59° |
| 2026-05-05 16:05 | 30.56253 | -140.35019 | 35027 ft | 477 kts | 59° |
| 2026-05-05 16:05 | 30.59303 | -140.28120 | 35027 ft | 477 kts | 60° |
| 2026-05-05 16:06 | 30.62318 | -140.21292 | 35027 ft | 477 kts | 59° |
| 2026-05-05 16:06 | 30.65344 | -140.14424 | 35027 ft | 477 kts | 59° |
| 2026-05-05 16:07 | 30.68358 | -140.07571 | 35027 ft | 477 kts | 59° |
| 2026-05-05 16:07 | 30.71360 | -140.00732 | 35028 ft | 477 kts | 59° |
| 2026-05-05 16:08 | 30.74367 | -139.93874 | 35028 ft | 477 kts | 59° |
| 2026-05-05 16:08 | 30.77360 | -139.87032 | 35028 ft | 476 kts | 59° |
| 2026-05-05 16:09 | 30.80354 | -139.80177 | 35028 ft | 476 kts | 59° |
| 2026-05-05 16:09 | 30.83341 | -139.73325 | 35028 ft | 475 kts | 59° |
| 2026-05-05 16:10 | 30.86343 | -139.66426 | 35028 ft | 475 kts | 59° |
| 2026-05-05 16:10 | 30.89323 | -139.59564 | 35028 ft | 475 kts | 59° |
| 2026-05-05 16:11 | 30.92312 | -139.52669 | 35028 ft | 475 kts | 59° |
| 2026-05-05 16:12 | 30.98240 | -139.38956 | 35047 ft | 475 kts | 59° |
| 2026-05-05 16:13 | 31.05654 | -139.21735 | 35048 ft | 475 kts | 59° |
| 2026-05-05 16:13 | 31.08590 | -139.14893 | 35048 ft | 475 kts | 59° |
| 2026-05-05 16:14 | 31.14489 | -139.01109 | 35048 ft | 474 kts | 59° |
| 2026-05-05 16:15 | 31.20362 | -138.87332 | 35048 ft | 474 kts | 59° |
| 2026-05-05 16:16 | 31.26217 | -138.73544 | 35048 ft | 474 kts | 59° |
| 2026-05-05 16:17 | 31.30594 | -138.63209 | 35048 ft | 473 kts | 59° |
| 2026-05-05 16:18 | 31.34961 | -138.52866 | 35048 ft | 473 kts | 59° |
| 2026-05-05 16:19 | 31.39355 | -138.42427 | 35048 ft | 474 kts | 59° |
| 2026-05-05 16:19 | 31.43710 | -138.32053 | 35048 ft | 474 kts | 59° |
| 2026-05-05 16:20 | 31.49499 | -138.18214 | 35048 ft | 474 kts | 59° |
| 2026-05-05 16:22 | 31.56705 | -138.00914 | 35048 ft | 473 kts | 59° |
| 2026-05-05 16:23 | 31.62457 | -137.87051 | 35048 ft | 473 kts | 59° |
| 2026-05-05 16:23 | 31.66757 | -137.76649 | 35048 ft | 473 kts | 59° |
| 2026-05-05 16:24 | 31.69630 | -137.69682 | 35046 ft | 473 kts | 59° |
| 2026-05-05 16:25 | 31.73906 | -137.59291 | 35046 ft | 473 kts | 59° |
| 2026-05-05 16:25 | 31.78177 | -137.48881 | 35046 ft | 473 kts | 58° |
| 2026-05-05 16:26 | 31.83864 | -137.34972 | 35046 ft | 473 kts | 59° |
| 2026-05-05 16:27 | 31.86723 | -137.27957 | 35045 ft | 473 kts | 59° |
| 2026-05-05 16:27 | 31.89558 | -137.20990 | 35043 ft | 473 kts | 59° |
| 2026-05-05 16:28 | 31.92386 | -137.14024 | 35041 ft | 473 kts | 59° |
| 2026-05-05 16:28 | 31.95218 | -137.07036 | 35041 ft | 473 kts | 59° |
| 2026-05-05 16:29 | 31.98033 | -137.00078 | 35042 ft | 473 kts | 59° |
| 2026-05-05 16:29 | 32.00845 | -136.93111 | 35042 ft | 472 kts | 58° |
| 2026-05-05 16:30 | 32.03654 | -136.86139 | 35048 ft | 472 kts | 58° |
| 2026-05-05 16:30 | 32.06462 | -136.79155 | 35050 ft | 471 kts | 58° |
| 2026-05-05 16:31 | 32.09239 | -136.72237 | 35045 ft | 470 kts | 58° |
| 2026-05-05 16:31 | 32.12038 | -136.65248 | 35045 ft | 471 kts | 58° |
| 2026-05-05 16:32 | 32.14827 | -136.58270 | 35046 ft | 470 kts | 58° |
| 2026-05-05 16:32 | 32.17614 | -136.51286 | 35046 ft | 471 kts | 58° |
| 2026-05-05 16:33 | 32.20395 | -136.44302 | 35046 ft | 471 kts | 58° |
| 2026-05-05 16:33 | 32.23175 | -136.37308 | 35046 ft | 471 kts | 58° |
| 2026-05-05 16:34 | 32.25947 | -136.30319 | 35046 ft | 471 kts | 58° |
| 2026-05-05 16:34 | 32.28719 | -136.23314 | 35046 ft | 470 kts | 58° |
| 2026-05-05 16:35 | 32.31481 | -136.16319 | 35046 ft | 470 kts | 58° |
| 2026-05-05 16:35 | 32.34240 | -136.09322 | 35046 ft | 470 kts | 58° |
| 2026-05-05 16:36 | 32.36982 | -136.02351 | 35046 ft | 470 kts | 58° |
| 2026-05-05 16:36 | 32.39745 | -135.95311 | 35046 ft | 471 kts | 58° |
| 2026-05-05 16:37 | 32.42480 | -135.88330 | 35049 ft | 471 kts | 58° |
| 2026-05-05 16:37 | 32.45232 | -135.81294 | 35049 ft | 470 kts | 58° |
| 2026-05-05 16:38 | 32.47979 | -135.74257 | 35047 ft | 470 kts | 58° |
| 2026-05-05 16:38 | 32.50698 | -135.67276 | 35047 ft | 470 kts | 58° |
| 2026-05-05 16:39 | 32.53441 | -135.60217 | 35049 ft | 470 kts | 58° |
| 2026-05-05 16:39 | 32.56171 | -135.53181 | 35052 ft | 470 kts | 58° |
| 2026-05-05 16:40 | 32.58887 | -135.46164 | 35053 ft | 470 kts | 58° |
| 2026-05-05 16:40 | 32.61605 | -135.39127 | 35054 ft | 470 kts | 58° |
| 2026-05-05 16:41 | 32.64330 | -135.32060 | 35053 ft | 470 kts | 59° |
| 2026-05-05 16:41 | 32.67063 | -135.24959 | 35053 ft | 470 kts | 59° |
| 2026-05-05 16:42 | 32.69770 | -135.17906 | 35053 ft | 470 kts | 59° |
| 2026-05-05 16:42 | 32.72467 | -135.10867 | 35056 ft | 471 kts | 59° |
| 2026-05-05 16:43 | 32.75182 | -135.03766 | 35057 ft | 471 kts | 59° |
| 2026-05-05 16:43 | 32.77892 | -134.96660 | 35057 ft | 471 kts | 59° |
| 2026-05-05 16:44 | 32.80582 | -134.89592 | 35057 ft | 471 kts | 59° |
| 2026-05-05 16:44 | 32.83270 | -134.82520 | 35057 ft | 471 kts | 59° |
| 2026-05-05 16:45 | 32.85957 | -134.75435 | 35056 ft | 470 kts | 59° |
| 2026-05-05 16:45 | 32.88649 | -134.68321 | 35056 ft | 470 kts | 59° |
| 2026-05-05 16:46 | 32.91342 | -134.61188 | 35056 ft | 471 kts | 59° |
| 2026-05-05 16:46 | 32.94033 | -134.54048 | 35056 ft | 471 kts | 59° |
| 2026-05-05 16:47 | 32.96691 | -134.46979 | 35056 ft | 471 kts | 59° |
| 2026-05-05 16:47 | 32.99372 | -134.39833 | 35056 ft | 471 kts | 59° |
| 2026-05-05 16:48 | 33.02024 | -134.32748 | 35055 ft | 471 kts | 60° |
| 2026-05-05 16:48 | 33.04685 | -134.25624 | 35055 ft | 470 kts | 60° |
| 2026-05-05 16:49 | 33.07335 | -134.18518 | 35055 ft | 470 kts | 60° |
| 2026-05-05 16:49 | 33.09989 | -134.11383 | 35055 ft | 470 kts | 60° |
| 2026-05-05 16:50 | 33.12637 | -134.04251 | 35052 ft | 470 kts | 60° |
| 2026-05-05 16:50 | 33.15268 | -133.97148 | 35047 ft | 470 kts | 60° |
| 2026-05-05 16:51 | 33.17900 | -133.90030 | 35050 ft | 470 kts | 60° |
| 2026-05-05 16:51 | 33.20533 | -133.82890 | 35051 ft | 469 kts | 60° |
| 2026-05-05 16:52 | 33.23152 | -133.75772 | 35041 ft | 469 kts | 60° |
| 2026-05-05 16:52 | 33.25763 | -133.68665 | 35039 ft | 469 kts | 60° |
| 2026-05-05 16:53 | 33.28397 | -133.61478 | 35040 ft | 468 kts | 60° |
| 2026-05-05 16:53 | 33.31011 | -133.54335 | 35040 ft | 469 kts | 60° |
| 2026-05-05 16:54 | 33.33609 | -133.47220 | 35041 ft | 468 kts | 60° |
| 2026-05-05 16:54 | 33.36200 | -133.40108 | 35041 ft | 468 kts | 60° |
| 2026-05-05 16:55 | 33.38791 | -133.32977 | 35041 ft | 468 kts | 61° |
| 2026-05-05 16:55 | 33.41385 | -133.25824 | 35041 ft | 468 kts | 61° |
| 2026-05-05 16:56 | 33.43967 | -133.18690 | 35041 ft | 468 kts | 61° |
| 2026-05-05 16:56 | 33.46529 | -133.11592 | 35041 ft | 468 kts | 61° |
| 2026-05-05 16:57 | 33.49106 | -133.04439 | 35042 ft | 468 kts | 61° |
| 2026-05-05 16:57 | 33.51679 | -132.97278 | 35042 ft | 468 kts | 61° |
| 2026-05-05 16:58 | 33.54239 | -132.90140 | 35043 ft | 467 kts | 61° |
| 2026-05-05 16:58 | 33.56805 | -132.82970 | 35044 ft | 466 kts | 61° |
| 2026-05-05 16:59 | 33.59356 | -132.75827 | 35051 ft | 466 kts | 61° |
| 2026-05-05 16:59 | 33.61898 | -132.68692 | 35060 ft | 465 kts | 61° |
| 2026-05-05 17:00 | 33.64440 | -132.61539 | 35067 ft | 465 kts | 61° |
| 2026-05-05 17:00 | 33.66955 | -132.54451 | 35070 ft | 464 kts | 62° |
| 2026-05-05 17:01 | 33.69479 | -132.47322 | 35069 ft | 463 kts | 62° |
| 2026-05-05 17:01 | 33.71984 | -132.40227 | 35067 ft | 462 kts | 62° |
| 2026-05-05 17:02 | 33.74496 | -132.33101 | 35065 ft | 462 kts | 62° |
| 2026-05-05 17:02 | 33.76988 | -132.26015 | 35065 ft | 461 kts | 62° |
| 2026-05-05 17:03 | 33.79474 | -132.18929 | 35065 ft | 460 kts | 62° |
| 2026-05-05 17:03 | 33.81952 | -132.11852 | 35065 ft | 460 kts | 62° |
| 2026-05-05 17:04 | 33.84427 | -132.04768 | 35065 ft | 459 kts | 62° |
| 2026-05-05 17:04 | 33.86887 | -131.97710 | 35067 ft | 459 kts | 63° |
| 2026-05-05 17:05 | 33.89344 | -131.90645 | 35068 ft | 458 kts | 63° |
| 2026-05-05 17:05 | 33.91795 | -131.83583 | 35068 ft | 458 kts | 63° |
| 2026-05-05 17:06 | 33.94244 | -131.76509 | 35067 ft | 458 kts | 63° |
| 2026-05-05 17:06 | 33.96670 | -131.69487 | 35067 ft | 458 kts | 63° |
| 2026-05-05 17:07 | 33.99108 | -131.62416 | 35066 ft | 458 kts | 63° |
| 2026-05-05 17:07 | 34.01567 | -131.55267 | 35064 ft | 459 kts | 63° |
| 2026-05-05 17:08 | 34.04000 | -131.48178 | 35068 ft | 457 kts | 63° |
| 2026-05-05 17:08 | 34.06412 | -131.41127 | 35069 ft | 455 kts | 63° |
| 2026-05-05 17:09 | 34.08827 | -131.34056 | 35066 ft | 454 kts | 64° |
| 2026-05-05 17:09 | 34.11218 | -131.27043 | 35065 ft | 454 kts | 64° |
| 2026-05-05 17:10 | 34.13589 | -131.20070 | 35065 ft | 452 kts | 64° |
| 2026-05-05 17:10 | 34.15968 | -131.13062 | 35065 ft | 451 kts | 64° |
| 2026-05-05 17:11 | 34.18354 | -131.06015 | 35065 ft | 450 kts | 64° |
| 2026-05-05 17:11 | 34.20710 | -130.99042 | 35065 ft | 449 kts | 64° |
| 2026-05-05 17:12 | 34.23059 | -130.92072 | 35064 ft | 448 kts | 64° |
| 2026-05-05 17:12 | 34.25397 | -130.85120 | 35064 ft | 447 kts | 64° |
| 2026-05-05 17:13 | 34.27718 | -130.78206 | 35064 ft | 447 kts | 64° |
| 2026-05-05 17:13 | 34.30045 | -130.71257 | 35064 ft | 446 kts | 64° |
| 2026-05-05 17:14 | 34.32358 | -130.64333 | 35064 ft | 446 kts | 64° |
| 2026-05-05 17:14 | 34.34666 | -130.57411 | 35064 ft | 445 kts | 64° |
| 2026-05-05 17:15 | 34.36983 | -130.50444 | 35063 ft | 445 kts | 64° |
| 2026-05-05 17:15 | 34.39284 | -130.43512 | 35063 ft | 445 kts | 64° |
| 2026-05-05 17:16 | 34.41582 | -130.36569 | 35064 ft | 445 kts | 64° |
| 2026-05-05 17:16 | 34.43866 | -130.29657 | 35064 ft | 445 kts | 65° |
| 2026-05-05 17:17 | 34.46169 | -130.22672 | 35064 ft | 445 kts | 65° |
| 2026-05-05 17:17 | 34.48454 | -130.15726 | 35064 ft | 446 kts | 65° |
| 2026-05-05 17:18 | 34.50754 | -130.08714 | 35065 ft | 446 kts | 65° |
| 2026-05-05 17:18 | 34.53034 | -130.01750 | 35065 ft | 446 kts | 65° |
| 2026-05-05 17:19 | 34.55309 | -129.94786 | 35065 ft | 445 kts | 65° |
| 2026-05-05 17:19 | 34.57574 | -129.87833 | 35066 ft | 445 kts | 65° |
| 2026-05-05 17:20 | 34.59835 | -129.80881 | 35067 ft | 443 kts | 65° |
| 2026-05-05 17:20 | 34.62094 | -129.73915 | 35068 ft | 441 kts | 65° |
| 2026-05-05 17:21 | 34.64334 | -129.66992 | 35067 ft | 440 kts | 65° |
| 2026-05-05 17:22 | 34.67670 | -129.56659 | 35068 ft | 439 kts | 66° |
| 2026-05-05 17:22 | 34.69892 | -129.49753 | 35068 ft | 438 kts | 66° |
| 2026-05-05 17:23 | 34.72094 | -129.42894 | 35068 ft | 436 kts | 66° |
| 2026-05-05 17:23 | 34.74290 | -129.36038 | 35068 ft | 435 kts | 66° |
| 2026-05-05 17:24 | 34.76489 | -129.29160 | 35068 ft | 435 kts | 66° |
| 2026-05-05 17:24 | 34.78672 | -129.22317 | 35068 ft | 434 kts | 67° |
| 2026-05-05 17:25 | 34.80841 | -129.15498 | 35065 ft | 433 kts | 67° |
| 2026-05-05 17:25 | 34.83029 | -129.08609 | 35058 ft | 431 kts | 67° |
| 2026-05-05 17:26 | 34.85194 | -129.01773 | 35052 ft | 430 kts | 67° |
| 2026-05-05 17:26 | 34.87347 | -128.94960 | 35051 ft | 430 kts | 67° |
| 2026-05-05 17:27 | 34.89492 | -128.88158 | 34895 ft | 431 kts | 67° |
| 2026-05-05 17:27 | 34.91617 | -128.81398 | 34730 ft | 427 kts | 67° |
| 2026-05-05 17:28 | 34.93742 | -128.74628 | 34550 ft | 428 kts | 67° |
| 2026-05-05 17:28 | 34.95866 | -128.67847 | 34357 ft | 427 kts | 67° |
| 2026-05-05 17:29 | 34.97971 | -128.61110 | 34148 ft | 427 kts | 67° |
| 2026-05-05 17:29 | 34.99030 | -128.57713 | 34037 ft | 427 kts | 67° |
| 2026-05-05 17:29 | 35.00081 | -128.54340 | 33926 ft | 428 kts | 67° |
| 2026-05-05 17:29 | 35.01128 | -128.50978 | 33816 ft | 428 kts | 67° |
| 2026-05-05 17:30 | 35.02177 | -128.47603 | 33706 ft | 428 kts | 67° |
| 2026-05-05 17:30 | 35.03243 | -128.44170 | 33593 ft | 428 kts | 67° |
| 2026-05-05 17:30 | 35.04281 | -128.40822 | 33483 ft | 428 kts | 67° |
| 2026-05-05 17:30 | 35.05333 | -128.37425 | 33372 ft | 428 kts | 67° |
| 2026-05-05 17:31 | 35.06376 | -128.34053 | 33261 ft | 428 kts | 68° |
| 2026-05-05 17:31 | 35.07431 | -128.30641 | 33148 ft | 429 kts | 68° |
| 2026-05-05 17:31 | 35.08487 | -128.27217 | 33036 ft | 429 kts | 68° |
| 2026-05-05 17:31 | 35.09522 | -128.23862 | 32926 ft | 429 kts | 68° |
| 2026-05-05 17:32 | 35.10580 | -128.20425 | 32813 ft | 430 kts | 68° |
| 2026-05-05 17:32 | 35.11623 | -128.17036 | 32702 ft | 430 kts | 68° |
| 2026-05-05 17:32 | 35.12676 | -128.13609 | 32590 ft | 430 kts | 68° |
| 2026-05-05 17:32 | 35.13717 | -128.10216 | 32478 ft | 431 kts | 68° |
| 2026-05-05 17:33 | 35.14772 | -128.06775 | 32365 ft | 431 kts | 68° |
| 2026-05-05 17:33 | 35.15825 | -128.03332 | 32251 ft | 431 kts | 68° |
| 2026-05-05 17:33 | 35.16875 | -127.99902 | 32138 ft | 432 kts | 68° |
| 2026-05-05 17:33 | 35.17912 | -127.96506 | 32028 ft | 432 kts | 68° |
| 2026-05-05 17:34 | 35.18963 | -127.93061 | 31922 ft | 432 kts | 68° |
| 2026-05-05 17:34 | 35.20008 | -127.89631 | 31816 ft | 432 kts | 68° |
| 2026-05-05 17:34 | 35.21051 | -127.86202 | 31710 ft | 431 kts | 68° |
| 2026-05-05 17:34 | 35.22097 | -127.82763 | 31602 ft | 431 kts | 68° |
| 2026-05-05 17:35 | 35.23149 | -127.79298 | 31488 ft | 432 kts | 68° |
| 2026-05-05 17:35 | 35.24192 | -127.75856 | 31376 ft | 432 kts | 67° |
| 2026-05-05 17:35 | 35.25225 | -127.72448 | 31264 ft | 433 kts | 67° |
| 2026-05-05 17:35 | 35.26268 | -127.69000 | 31152 ft | 433 kts | 67° |
| 2026-05-05 17:36 | 35.27307 | -127.65562 | 31041 ft | 434 kts | 67° |
| 2026-05-05 17:36 | 35.28357 | -127.62086 | 30929 ft | 434 kts | 67° |
| 2026-05-05 17:36 | 35.29396 | -127.58638 | 30817 ft | 435 kts | 67° |
| 2026-05-05 17:36 | 35.30447 | -127.55150 | 30706 ft | 436 kts | 67° |
| 2026-05-05 17:37 | 35.31488 | -127.51689 | 30595 ft | 436 kts | 67° |
| 2026-05-05 17:37 | 35.33574 | -127.44741 | 30374 ft | 436 kts | 67° |
| 2026-05-05 17:37 | 35.34627 | -127.41227 | 30262 ft | 436 kts | 67° |
| 2026-05-05 17:38 | 35.35659 | -127.37779 | 30153 ft | 437 kts | 67° |
| 2026-05-05 17:38 | 35.36708 | -127.34271 | 30042 ft | 438 kts | 68° |
| 2026-05-05 17:38 | 35.37750 | -127.30779 | 29931 ft | 439 kts | 68° |
| 2026-05-05 17:38 | 35.38806 | -127.27240 | 29818 ft | 440 kts | 68° |
| 2026-05-05 17:39 | 35.39847 | -127.23744 | 29710 ft | 440 kts | 68° |
| 2026-05-05 17:39 | 35.40885 | -127.20255 | 29602 ft | 440 kts | 68° |
| 2026-05-05 17:39 | 35.41928 | -127.16743 | 29494 ft | 441 kts | 68° |
| 2026-05-05 17:39 | 35.42978 | -127.13206 | 29384 ft | 441 kts | 68° |
| 2026-05-05 17:40 | 35.44023 | -127.09681 | 29275 ft | 441 kts | 68° |
| 2026-05-05 17:40 | 35.45077 | -127.06120 | 29166 ft | 442 kts | 68° |
| 2026-05-05 17:40 | 35.46112 | -127.02619 | 29076 ft | 442 kts | 68° |
| 2026-05-05 17:41 | 35.48172 | -126.95640 | 28903 ft | 443 kts | 68° |
| 2026-05-05 17:41 | 35.50278 | -126.88483 | 28730 ft | 444 kts | 67° |
| 2026-05-05 17:42 | 35.52367 | -126.81368 | 28564 ft | 445 kts | 67° |
| 2026-05-05 17:42 | 35.54442 | -126.74284 | 28403 ft | 445 kts | 67° |
| 2026-05-05 17:43 | 35.56524 | -126.67155 | 28241 ft | 445 kts | 67° |
| 2026-05-05 17:43 | 35.58615 | -126.59982 | 28077 ft | 445 kts | 67° |
| 2026-05-05 17:43 | 35.59646 | -126.56436 | 27997 ft | 445 kts | 67° |
| 2026-05-05 17:44 | 35.60682 | -126.52869 | 27915 ft | 445 kts | 67° |
| 2026-05-05 17:44 | 35.61715 | -126.49309 | 27834 ft | 445 kts | 67° |
| 2026-05-05 17:44 | 35.62748 | -126.45742 | 27752 ft | 445 kts | 67° |
| 2026-05-05 17:44 | 35.63786 | -126.42158 | 27670 ft | 445 kts | 67° |
| 2026-05-05 17:45 | 35.64819 | -126.38584 | 27589 ft | 445 kts | 67° |
| 2026-05-05 17:45 | 35.65853 | -126.34998 | 27447 ft | 446 kts | 67° |
| 2026-05-05 17:45 | 35.66878 | -126.31440 | 27233 ft | 445 kts | 68° |
| 2026-05-05 17:45 | 35.67916 | -126.27833 | 27081 ft | 442 kts | 68° |
| 2026-05-05 17:46 | 35.68931 | -126.24303 | 27040 ft | 444 kts | 68° |
| 2026-05-05 17:46 | 35.69970 | -126.20689 | 27029 ft | 446 kts | 68° |
| 2026-05-05 17:46 | 35.71001 | -126.17097 | 27034 ft | 446 kts | 68° |
| 2026-05-05 17:46 | 35.72026 | -126.13517 | 27048 ft | 447 kts | 68° |
| 2026-05-05 17:47 | 35.73053 | -126.09930 | 27074 ft | 447 kts | 68° |
| 2026-05-05 17:47 | 35.74128 | -126.06353 | 27080 ft | 445 kts | 65° |
| 2026-05-05 17:47 | 35.75287 | -126.02844 | 27082 ft | 444 kts | 64° |
| 2026-05-05 17:47 | 35.76499 | -125.99349 | 27081 ft | 443 kts | 64° |
| 2026-05-05 17:48 | 35.77717 | -125.95895 | 27078 ft | 443 kts | 63° |
| 2026-05-05 17:48 | 35.78951 | -125.92404 | 27076 ft | 443 kts | 63° |
| 2026-05-05 17:48 | 35.80162 | -125.88958 | 27076 ft | 443 kts | 64° |
| 2026-05-05 17:48 | 35.81381 | -125.85468 | 27076 ft | 442 kts | 64° |
| 2026-05-05 17:49 | 35.82589 | -125.81983 | 27077 ft | 442 kts | 64° |
| 2026-05-05 17:49 | 35.83794 | -125.78487 | 27079 ft | 442 kts | 64° |
| 2026-05-05 17:49 | 35.84987 | -125.75009 | 27082 ft | 443 kts | 64° |
| 2026-05-05 17:49 | 35.86177 | -125.71527 | 27086 ft | 443 kts | 64° |
| 2026-05-05 17:50 | 35.87367 | -125.68040 | 27088 ft | 443 kts | 64° |
| 2026-05-05 17:50 | 35.88560 | -125.64532 | 27089 ft | 443 kts | 64° |
| 2026-05-05 17:50 | 35.89735 | -125.61073 | 27089 ft | 443 kts | 64° |
| 2026-05-05 17:50 | 35.90928 | -125.57555 | 27089 ft | 443 kts | 64° |
| 2026-05-05 17:51 | 35.92096 | -125.54105 | 27090 ft | 443 kts | 64° |
| 2026-05-05 17:51 | 35.93284 | -125.50590 | 27089 ft | 443 kts | 64° |
| 2026-05-05 17:51 | 35.94474 | -125.47067 | 27089 ft | 443 kts | 64° |
| 2026-05-05 17:51 | 35.95646 | -125.43594 | 27089 ft | 443 kts | 64° |
| 2026-05-05 17:52 | 35.96826 | -125.40093 | 27089 ft | 443 kts | 64° |
| 2026-05-05 17:52 | 35.98009 | -125.36578 | 27089 ft | 442 kts | 64° |
| 2026-05-05 17:52 | 35.99179 | -125.33099 | 27089 ft | 442 kts | 64° |
| 2026-05-05 17:52 | 36.00366 | -125.29563 | 27089 ft | 442 kts | 64° |
| 2026-05-05 17:53 | 36.01540 | -125.26065 | 27089 ft | 442 kts | 64° |
| 2026-05-05 17:53 | 36.02705 | -125.22588 | 27089 ft | 442 kts | 64° |
| 2026-05-05 17:53 | 36.03875 | -125.19093 | 27089 ft | 442 kts | 64° |
| 2026-05-05 17:53 | 36.05051 | -125.15574 | 27088 ft | 441 kts | 64° |
| 2026-05-05 17:54 | 36.06214 | -125.12091 | 27085 ft | 441 kts | 64° |
| 2026-05-05 17:54 | 36.07384 | -125.08582 | 27085 ft | 440 kts | 64° |
| 2026-05-05 17:54 | 36.08531 | -125.05139 | 27084 ft | 439 kts | 64° |
| 2026-05-05 17:54 | 36.09685 | -125.01668 | 27086 ft | 438 kts | 64° |
| 2026-05-05 17:55 | 36.10848 | -124.98171 | 27089 ft | 438 kts | 64° |
| 2026-05-05 17:55 | 36.12006 | -124.94681 | 27090 ft | 438 kts | 64° |
| 2026-05-05 17:55 | 36.13147 | -124.91240 | 27090 ft | 437 kts | 64° |
| 2026-05-05 17:55 | 36.14305 | -124.87744 | 27090 ft | 437 kts | 64° |
| 2026-05-05 17:56 | 36.15454 | -124.84270 | 27089 ft | 436 kts | 64° |
| 2026-05-05 17:56 | 36.16627 | -124.80817 | 27089 ft | 435 kts | 63° |
| 2026-05-05 17:56 | 36.17893 | -124.77477 | 27089 ft | 433 kts | 59° |
| 2026-05-05 17:56 | 36.19415 | -124.74267 | 27065 ft | 431 kts | 54° |
| 2026-05-05 17:57 | 36.21123 | -124.71224 | 26948 ft | 430 kts | 51° |
| 2026-05-05 17:57 | 36.22934 | -124.68256 | 26748 ft | 429 kts | 50° |
| 2026-05-05 17:57 | 36.24754 | -124.65394 | 26531 ft | 427 kts | 49° |
| 2026-05-05 17:57 | 36.26623 | -124.62507 | 26301 ft | 427 kts | 49° |
| 2026-05-05 17:58 | 36.28467 | -124.59666 | 26022 ft | 427 kts | 49° |
| 2026-05-05 17:58 | 36.30329 | -124.56789 | 25742 ft | 429 kts | 49° |
| 2026-05-05 17:58 | 36.32188 | -124.53899 | 25462 ft | 428 kts | 49° |
| 2026-05-05 17:58 | 36.34031 | -124.51019 | 25179 ft | 426 kts | 49° |
| 2026-05-05 17:59 | 36.35844 | -124.48173 | 24890 ft | 424 kts | 49° |
| 2026-05-05 17:59 | 36.37677 | -124.45284 | 24596 ft | 423 kts | 49° |
| 2026-05-05 17:59 | 36.39481 | -124.42436 | 24308 ft | 422 kts | 49° |
| 2026-05-05 17:59 | 36.41297 | -124.39561 | 24016 ft | 421 kts | 49° |
| 2026-05-05 18:00 | 36.43100 | -124.36703 | 23726 ft | 419 kts | 49° |
| 2026-05-05 18:00 | 36.44872 | -124.33890 | 23439 ft | 418 kts | 50° |
| 2026-05-05 18:00 | 36.46669 | -124.31033 | 23150 ft | 417 kts | 50° |
| 2026-05-05 18:00 | 36.48459 | -124.28187 | 22862 ft | 415 kts | 50° |
| 2026-05-05 18:01 | 36.50220 | -124.25384 | 22582 ft | 414 kts | 50° |
| 2026-05-05 18:01 | 36.51995 | -124.22558 | 22300 ft | 413 kts | 50° |
| 2026-05-05 18:01 | 36.53746 | -124.19767 | 22022 ft | 411 kts | 49° |
| 2026-05-05 18:01 | 36.55518 | -124.16938 | 21739 ft | 410 kts | 49° |
| 2026-05-05 18:02 | 36.57265 | -124.14146 | 21458 ft | 409 kts | 49° |
| 2026-05-05 18:02 | 36.58991 | -124.11386 | 21181 ft | 408 kts | 49° |
| 2026-05-05 18:02 | 36.60734 | -124.08597 | 20902 ft | 406 kts | 49° |
| 2026-05-05 18:02 | 36.62450 | -124.05852 | 20627 ft | 405 kts | 49° |
| 2026-05-05 18:03 | 36.64169 | -124.03098 | 20351 ft | 404 kts | 49° |
| 2026-05-05 18:03 | 36.65907 | -124.00311 | 20070 ft | 403 kts | 49° |
| 2026-05-05 18:03 | 36.67596 | -123.97601 | 19796 ft | 401 kts | 49° |
| 2026-05-05 18:03 | 36.69293 | -123.94872 | 19518 ft | 392 kts | 49° |
| 2026-05-05 18:04 | 36.70939 | -123.92220 | 19247 ft | 380 kts | 49° |
| 2026-05-05 18:04 | 36.72530 | -123.89652 | 18986 ft | 368 kts | 49° |
| 2026-05-05 18:04 | 36.74072 | -123.87163 | 18736 ft | 356 kts | 49° |
| 2026-05-05 18:04 | 36.75545 | -123.84783 | 18490 ft | 345 kts | 49° |
| 2026-05-05 18:05 | 36.76988 | -123.82455 | 18239 ft | 335 kts | 49° |
| 2026-05-05 18:05 | 36.78413 | -123.80159 | 17987 ft | 331 kts | 48° |
| 2026-05-05 18:05 | 36.79814 | -123.77906 | 17748 ft | 332 kts | 48° |
| 2026-05-05 18:05 | 36.81238 | -123.75620 | 17519 ft | 332 kts | 48° |
| 2026-05-05 18:06 | 36.82642 | -123.73363 | 17294 ft | 331 kts | 48° |
| 2026-05-05 18:06 | 36.83587 | -123.71840 | 17142 ft | 330 kts | 48° |
| 2026-05-05 18:06 | 36.85448 | -123.68835 | 16841 ft | 330 kts | 48° |
| 2026-05-05 18:06 | 36.86844 | -123.66575 | 16615 ft | 328 kts | 48° |
| 2026-05-05 18:07 | 36.88238 | -123.64314 | 16390 ft | 327 kts | 48° |
| 2026-05-05 18:07 | 36.89616 | -123.62085 | 16166 ft | 327 kts | 48° |
| 2026-05-05 18:07 | 36.91004 | -123.59833 | 15939 ft | 326 kts | 49° |
| 2026-05-05 18:07 | 36.92382 | -123.57591 | 15713 ft | 324 kts | 49° |
| 2026-05-05 18:08 | 36.93749 | -123.55378 | 15492 ft | 324 kts | 49° |
| 2026-05-05 18:08 | 36.95118 | -123.53153 | 15267 ft | 323 kts | 49° |
| 2026-05-05 18:08 | 36.96499 | -123.50902 | 15039 ft | 322 kts | 49° |
| 2026-05-05 18:08 | 36.97852 | -123.48694 | 14814 ft | 321 kts | 49° |
| 2026-05-05 18:09 | 36.99200 | -123.46491 | 14590 ft | 320 kts | 49° |
| 2026-05-05 18:09 | 37.00561 | -123.44267 | 14381 ft | 319 kts | 49° |
| 2026-05-05 18:09 | 37.01901 | -123.42078 | 14181 ft | 316 kts | 49° |
| 2026-05-05 18:09 | 37.03219 | -123.39926 | 13974 ft | 305 kts | 49° |
| 2026-05-05 18:10 | 37.04476 | -123.37868 | 13776 ft | 296 kts | 49° |
| 2026-05-05 18:10 | 37.05714 | -123.35834 | 13575 ft | 291 kts | 49° |
| 2026-05-05 18:10 | 37.06947 | -123.33810 | 13376 ft | 292 kts | 50° |
| 2026-05-05 18:10 | 37.08162 | -123.31808 | 13178 ft | 292 kts | 50° |
| 2026-05-05 18:11 | 37.09402 | -123.29765 | 12976 ft | 291 kts | 50° |
| 2026-05-05 18:11 | 37.10623 | -123.27756 | 12755 ft | 290 kts | 50° |
| 2026-05-05 18:11 | 37.11848 | -123.25745 | 12533 ft | 289 kts | 50° |
| 2026-05-05 18:11 | 37.13057 | -123.23762 | 12334 ft | 288 kts | 50° |
| 2026-05-05 18:12 | 37.14278 | -123.21756 | 12133 ft | 288 kts | 50° |
| 2026-05-05 18:12 | 37.15482 | -123.19778 | 11935 ft | 288 kts | 50° |
| 2026-05-05 18:12 | 37.16697 | -123.17782 | 11736 ft | 287 kts | 50° |
| 2026-05-05 18:12 | 37.17910 | -123.15785 | 11536 ft | 287 kts | 50° |
| 2026-05-05 18:13 | 37.19075 | -123.13789 | 11338 ft | 287 kts | 54° |
| 2026-05-05 18:13 | 37.19966 | -123.11530 | 11139 ft | 291 kts | 66° |
| 2026-05-05 18:13 | 37.20569 | -123.09085 | 10941 ft | 292 kts | 70° |
| 2026-05-05 18:13 | 37.21074 | -123.06645 | 10743 ft | 293 kts | 72° |
| 2026-05-05 18:14 | 37.21601 | -123.04185 | 10546 ft | 288 kts | 70° |
| 2026-05-05 18:14 | 37.22133 | -123.01787 | 10343 ft | 281 kts | 70° |
| 2026-05-05 18:14 | 37.22665 | -122.99474 | 10148 ft | 280 kts | 70° |
| 2026-05-05 18:14 | 37.23225 | -122.97106 | 10022 ft | 279 kts | 70° |
| 2026-05-05 18:15 | 37.23783 | -122.94769 | 10002 ft | 281 kts | 70° |
| 2026-05-05 18:15 | 37.24342 | -122.92437 | 10000 ft | 283 kts | 70° |
| 2026-05-05 18:15 | 37.24902 | -122.90076 | 9996 ft | 283 kts | 71° |
| 2026-05-05 18:15 | 37.25462 | -122.87690 | 10002 ft | 285 kts | 71° |
| 2026-05-05 18:16 | 37.26012 | -122.85296 | 10000 ft | 285 kts | 71° |
| 2026-05-05 18:16 | 37.26575 | -122.82910 | 9928 ft | 286 kts | 71° |
| 2026-05-05 18:16 | 37.27141 | -122.80526 | 9690 ft | 285 kts | 71° |
| 2026-05-05 18:16 | 37.27695 | -122.78149 | 9439 ft | 282 kts | 71° |
| 2026-05-05 18:17 | 37.28245 | -122.75809 | 9194 ft | 281 kts | 71° |
| 2026-05-05 18:17 | 37.28802 | -122.73460 | 8945 ft | 281 kts | 71° |
| 2026-05-05 18:17 | 37.29367 | -122.71098 | 8692 ft | 280 kts | 71° |
| 2026-05-05 18:17 | 37.29915 | -122.68776 | 8442 ft | 279 kts | 71° |
| 2026-05-05 18:18 | 37.30453 | -122.66438 | 8179 ft | 280 kts | 72° |
| 2026-05-05 18:18 | 37.30992 | -122.64109 | 8001 ft | 271 kts | 72° |
| 2026-05-05 18:18 | 37.31505 | -122.61893 | 7979 ft | 258 kts | 71° |
| 2026-05-05 18:18 | 37.32010 | -122.59724 | 7994 ft | 265 kts | 72° |
| 2026-05-05 18:19 | 37.32539 | -122.57454 | 7999 ft | 271 kts | 72° |
| 2026-05-05 18:19 | 37.33063 | -122.55205 | 7999 ft | 269 kts | 72° |
| 2026-05-05 18:19 | 37.33588 | -122.52922 | 7994 ft | 271 kts | 72° |
| 2026-05-05 18:19 | 37.34113 | -122.50660 | 7999 ft | 271 kts | 71° |
| 2026-05-05 18:20 | 37.34633 | -122.48386 | 7997 ft | 271 kts | 72° |
| 2026-05-05 18:20 | 37.35151 | -122.46124 | 7998 ft | 271 kts | 72° |
| 2026-05-05 18:20 | 37.35677 | -122.43844 | 7997 ft | 271 kts | 72° |
| 2026-05-05 18:20 | 37.36199 | -122.41560 | 7997 ft | 271 kts | 72° |
| 2026-05-05 18:21 | 37.36717 | -122.39284 | 7997 ft | 271 kts | 72° |
| 2026-05-05 18:21 | 37.37235 | -122.37024 | 7997 ft | 271 kts | 72° |
| 2026-05-05 18:21 | 37.37764 | -122.34721 | 7996 ft | 271 kts | 72° |
| 2026-05-05 18:21 | 37.38282 | -122.32465 | 8014 ft | 268 kts | 72° |
| 2026-05-05 18:22 | 37.38783 | -122.30266 | 7947 ft | 258 kts | 73° |
| 2026-05-05 18:22 | 37.39273 | -122.28121 | 7594 ft | 259 kts | 72° |
| 2026-05-05 18:22 | 37.39808 | -122.25946 | 7246 ft | 259 kts | 70° |
| 2026-05-05 18:22 | 37.40415 | -122.23829 | 6947 ft | 257 kts | 68° |
| 2026-05-05 18:23 | 37.41031 | -122.21749 | 6783 ft | 252 kts | 69° |
| 2026-05-05 18:23 | 37.41623 | -122.19691 | 6731 ft | 254 kts | 69° |
| 2026-05-05 18:23 | 37.42222 | -122.17566 | 6606 ft | 257 kts | 70° |
| 2026-05-05 18:23 | 37.42785 | -122.15462 | 6478 ft | 255 kts | 70° |
| 2026-05-05 18:24 | 37.43359 | -122.13354 | 6349 ft | 249 kts | 70° |
| 2026-05-05 18:24 | 37.43919 | -122.11334 | 6224 ft | 240 kts | 70° |
| 2026-05-05 18:24 | 37.44454 | -122.09422 | 6188 ft | 228 kts | 69° |
| 2026-05-05 18:24 | 37.44989 | -122.07580 | 6196 ft | 221 kts | 69° |
| 2026-05-05 18:25 | 37.45483 | -122.05718 | 6193 ft | 224 kts | 71° |
| 2026-05-05 18:25 | 37.45794 | -122.04487 | 6195 ft | 223 kts | 70° |
| 2026-05-05 18:25 | 37.46484 | -122.02036 | 6200 ft | 223 kts | 68° |
| 2026-05-05 18:25 | 37.47032 | -122.00199 | 6195 ft | 223 kts | 69° |
| 2026-05-05 18:26 | 37.47517 | -121.98369 | 6191 ft | 223 kts | 71° |
| 2026-05-05 18:26 | 37.47999 | -121.96516 | 6191 ft | 223 kts | 70° |
| 2026-05-05 18:26 | 37.48500 | -121.94662 | 6189 ft | 223 kts | 70° |
| 2026-05-05 18:26 | 37.49010 | -121.92807 | 6195 ft | 222 kts | 69° |
| 2026-05-05 18:27 | 37.49527 | -121.90961 | 6196 ft | 223 kts | 69° |
| 2026-05-05 18:27 | 37.50022 | -121.89133 | 6190 ft | 223 kts | 71° |
| 2026-05-05 18:27 | 37.50521 | -121.87270 | 6193 ft | 225 kts | 70° |
| 2026-05-05 18:27 | 37.51021 | -121.85422 | 6195 ft | 223 kts | 70° |
| 2026-05-05 18:28 | 37.52068 | -121.81741 | 6209 ft | 217 kts | 63° |
| 2026-05-05 18:28 | 37.52896 | -121.80241 | 6088 ft | 207 kts | 40° |
| 2026-05-05 18:28 | 37.54134 | -121.79338 | 5744 ft | 207 kts | 17° |
| 2026-05-05 18:29 | 37.55535 | -121.78938 | 5475 ft | 205 kts | 4° |
| 2026-05-05 18:29 | 37.56938 | -121.79030 | 5208 ft | 202 kts | 342° |
| 2026-05-05 18:29 | 37.58175 | -121.79831 | 4942 ft | 199 kts | 322° |
| 2026-05-05 18:29 | 37.59197 | -121.80991 | 4676 ft | 197 kts | 310° |
| 2026-05-05 18:30 | 37.59881 | -121.82448 | 4464 ft | 192 kts | 287° |
| 2026-05-05 18:30 | 37.60060 | -121.84100 | 4246 ft | 188 kts | 270° |
| 2026-05-05 18:30 | 37.59922 | -121.85725 | 3983 ft | 187 kts | 256° |
| 2026-05-05 18:30 | 37.59420 | -121.87201 | 3842 ft | 178 kts | 244° |
| 2026-05-05 18:31 | 37.59136 | -121.88679 | 3689 ft | 177 kts | 274° |
| 2026-05-05 18:31 | 37.59280 | -121.90212 | 3671 ft | 175 kts | 277° |
| 2026-05-05 18:31 | 37.59414 | -121.91706 | 3604 ft | 168 kts | 276° |
| 2026-05-05 18:31 | 37.59537 | -121.93147 | 3591 ft | 166 kts | 276° |
| 2026-05-05 18:32 | 37.59661 | -121.94595 | 3550 ft | 167 kts | 276° |
| 2026-05-05 18:32 | 37.59786 | -121.96056 | 3399 ft | 167 kts | 276° |
| 2026-05-05 18:32 | 37.59908 | -121.97486 | 3391 ft | 165 kts | 276° |
| 2026-05-05 18:32 | 37.60033 | -121.98943 | 3401 ft | 166 kts | 276° |
| 2026-05-05 18:33 | 37.60155 | -122.00359 | 3401 ft | 158 kts | 277° |
| 2026-05-05 18:33 | 37.60278 | -122.01728 | 3401 ft | 157 kts | 277° |
| 2026-05-05 18:33 | 37.60409 | -122.03095 | 3401 ft | 156 kts | 277° |
| 2026-05-05 18:33 | 37.60551 | -122.04460 | 3376 ft | 158 kts | 278° |
| 2026-05-05 18:34 | 37.60709 | -122.05822 | 3194 ft | 158 kts | 279° |
| 2026-05-05 18:34 | 37.61021 | -122.07130 | 2974 ft | 153 kts | 296° |
| 2026-05-05 18:34 | 37.61547 | -122.08284 | 2765 ft | 155 kts | 303° |
| 2026-05-05 18:34 | 37.62161 | -122.09388 | 2546 ft | 152 kts | 307° |
| 2026-05-05 18:35 | 37.62817 | -122.10447 | 2326 ft | 152 kts | 308° |
| 2026-05-05 18:35 | 37.63485 | -122.11478 | 2117 ft | 151 kts | 310° |
| 2026-05-05 18:35 | 37.64148 | -122.12485 | 1900 ft | 150 kts | 309° |
| 2026-05-05 18:35 | 37.64823 | -122.13507 | 1687 ft | 150 kts | 310° |
| 2026-05-05 18:36 | 37.65495 | -122.14508 | 1476 ft | 149 kts | 310° |
| 2026-05-05 18:36 | 37.66159 | -122.15498 | 1271 ft | 149 kts | 309° |
| 2026-05-05 18:36 | 37.66828 | -122.16486 | 1070 ft | 147 kts | 310° |
| 2026-05-05 18:36 | 37.67506 | -122.17468 | 863 ft | 148 kts | 309° |
| 2026-05-05 18:37 | 37.68168 | -122.18462 | 661 ft | 148 kts | 309° |
| 2026-05-05 18:37 | 37.68834 | -122.19450 | 463 ft | 146 kts | 309° |
| 2026-05-05 18:37 | 37.69481 | -122.20423 | 280 ft | 143 kts | 308° |
| 2026-05-05 18:37 | 37.70110 | -122.21364 | 87 ft | 141 kts | 308° |
| 2026-05-05 18:38 | 37.70718 | -122.22281 | 12 ft | 123 kts | 310° |
| 2026-05-05 18:38 | 37.71143 | -122.22916 | 12 ft | 66 kts | 312° |
| 2026-05-05 18:38 | 37.71408 | -122.23140 | 12 ft | 23 kts | 345° |
| 2026-05-05 18:38 | 37.71457 | -122.23149 | 12 ft | 0 kts | 6° |
| 2026-05-05 18:39 | 37.71458 | -122.23149 | 12 ft | 0 kts | 6° |
| 2026-05-05 18:40 | 37.71472 | -122.23145 | 12 ft | 4 kts | 15° |
| 2026-05-05 18:40 | 37.71500 | -122.23101 | 12 ft | 7 kts | 88° |
| 2026-05-05 18:40 | 37.71475 | -122.23042 | 12 ft | 9 kts | 130° |
| 2026-05-05 18:40 | 37.71428 | -122.22972 | 12 ft | 11 kts | 130° |
| 2026-05-05 18:41 | 37.71382 | -122.22902 | 12 ft | 9 kts | 130° |
| 2026-05-05 18:41 | 37.71334 | -122.22830 | 12 ft | 12 kts | 130° |
| 2026-05-05 18:41 | 37.71272 | -122.22738 | 12 ft | 14 kts | 130° |
| 2026-05-05 18:41 | 37.71211 | -122.22646 | 12 ft | 13 kts | 128° |
| 2026-05-05 18:42 | 37.71204 | -122.22546 | 13 ft | 11 kts | 60° |
| 2026-05-05 18:42 | 37.71253 | -122.22471 | 12 ft | 10 kts | 47° |
| 2026-05-05 18:42 | 37.71299 | -122.22407 | 13 ft | 9 kts | 49° |
| 2026-05-05 18:42 | 37.71341 | -122.22340 | 13 ft | 9 kts | 63° |
| 2026-05-05 18:43 | 37.71335 | -122.22255 | 12 ft | 12 kts | 123° |
| 2026-05-05 18:43 | 37.71277 | -122.22166 | 13 ft | 12 kts | 130° |
| 2026-05-05 18:43 | 37.71223 | -122.22086 | 13 ft | 11 kts | 130° |
| 2026-05-05 18:43 | 37.71172 | -122.22011 | 13 ft | 11 kts | 130° |
| 2026-05-05 18:44 | 37.71120 | -122.21931 | 13 ft | 11 kts | 129° |
| 2026-05-05 18:44 | 37.71066 | -122.21857 | 13 ft | 11 kts | 139° |
| 2026-05-05 18:44 | 37.70996 | -122.21782 | 13 ft | 13 kts | 130° |
| 2026-05-05 18:44 | 37.70942 | -122.21688 | 13 ft | 12 kts | 127° |
| 2026-05-05 18:45 | 37.70917 | -122.21594 | 13 ft | 11 kts | 89° |
| 2026-05-05 18:45 | 37.70955 | -122.21519 | 13 ft | 9 kts | 37° |
| 2026-05-05 18:45 | 37.71006 | -122.21471 | 13 ft | 8 kts | 37° |
| 2026-05-05 18:45 | 37.71049 | -122.21429 | 13 ft | 4 kts | 37° |
| 2026-05-05 18:46 | 37.71073 | -122.21416 | 13 ft | 3 kts | 354° |
| 2026-05-05 18:46 | 37.71094 | -122.21430 | 13 ft | 3 kts | 322° |
| 2026-05-05 18:46 | 37.71107 | -122.21444 | 13 ft | 1 kts | 319° |
| 2026-05-05 18:46 | 37.71115 | -122.21453 | 13 ft | 1 kts | 318° |
| 2026-05-05 18:47 | 37.71117 | -122.21455 | 13 ft | 0 kts | 318° |